메인 페이지
METAR-TAF:

METAR-TAF

공항 :

인천국제공항

인천, 대한민국

위도: 37-28N, 경도: 126-27E, 고도: 7m

현재 날씨관측

예보는 19분 전, 06:30시(UTC)에 발표되었습니다.
서북서8kt
온도 20°C
습도 32%
기압 1008 hPa
시정 10km 이상
1500m 미만 상공 구름 및 적란운 없음

METAR: RKSI 250630Z 29008KT CAVOK 20/03 Q1008 NOSIG

시각: 15:49 (06:49 UTC)

예보

예보는 1 시간 49분 전, 05:00시(UTC)에 발표되었습니다.
예보 대상 시간: 25일 06시부터 26일 12시까지 (UTC)
서남서8kt
시정 10km 이상
1500m 미만 상공 구름 및 적란운 없음
전환 중
25일 11시부터 25일 12시까지 (UTC)
북서5kt
전환 중
25일 13시부터 25일 14시까지 (UTC)
남남동6kt
전환 중
25일 16시부터 25일 17시까지 (UTC)
북동5kt
시정: 6000m
전환 중
26일 03시부터 26일 04시까지 (UTC)
서북서10kt
시정 10km 이상
1500m 미만 상공 구름 및 적란운 없음
전환 중
26일 11시부터 26일 12시까지 (UTC)
6kt

TAF: RKSI 250500Z 2506/2612 24008KT CAVOK TN14/2521Z TX25/2605Z BECMG 2511/2512 31005KT BECMG 2513/2514 15006KT BECMG 2516/2517 05005KT 6000 NSC BECMG 2603/2604 29010KT CAVOK BECMG 2611/2612 35006KT

4,000개 이상의 공항 관측 자료 및 예보 (METAR 및 TAF 보고).

지도상에서 검색 가능한 기상관측소가 노란 점과 빨간 점으로 표시되어 있습니다.

기상관측소 명을 보려면 표시 위로 마우스를 이동하세요.

날씨 관측과 예보를 보려면 클릭하세요.

지도 변경 : 확대하려면 엑스 표시가 있는 녹색 버튼, 축소하려면 빼기 표시가 있는 녹색 버튼, 다음 페이지의 지도를 보려면 녹색 화살표를 클릭하세요.


METAR-TAF: